Time;durP1;ratioP1;P1;durP2;ratioP2;P2;SDS_P1;SDS_P2;PMS_P1;PMS_P2;Temp;Humidity;BMP_temperature;BMP_pressure;BME280_temperature;BME280_humidity;BME280_pressure;Samples;Min_cycle;Max_cycle;Signal;HPM_P1;HPM_P2
2022/11/30 00:02:25;;;;;;;;;;;8.20;99.90;;;;;;5054290;28;20018;-80
2022/11/30 00:04:53;;;;;;;;;;;8.30;99.90;;;;;;5057857;28;20428;-80
2022/11/30 00:07:20;;;;;;;;;;;8.20;99.90;;;;;;5057431;28;19924;-80
2022/11/30 00:09:47;;;;;;;;;;;8.30;99.90;;;;;;5206123;22;19928;-78
2022/11/30 00:12:13;;;;;;;;;;;8.30;99.90;;;;;;5095648;28;20534;-78
2022/11/30 00:14:40;;;;;;;;;;;8.30;99.90;;;;;;5095125;28;19955;-77
2022/11/30 00:17:07;;;;;;;;;;;8.40;99.90;;;;;;5089172;28;20019;-77
2022/11/30 00:19:33;;;;;;;;;;;8.40;99.90;;;;;;5072504;28;19979;-77
2022/11/30 00:22:01;;;;;;;;;;;8.40;99.90;;;;;;5091600;28;19932;-78
2022/11/30 00:24:28;;;;;;;;;;;8.30;99.90;;;;;;5115834;22;20299;-75
2022/11/30 00:26:55;;;;;;;;;;;8.30;99.90;;;;;;5091246;28;19924;-75
2022/11/30 00:29:22;;;;;;;;;;;8.30;99.90;;;;;;5083389;28;19935;-75
2022/11/30 00:31:49;;;;;;;;;;;8.40;99.90;;;;;;5108303;28;19934;-74
2022/11/30 00:34:16;;;;;;;;;;;8.40;99.90;;;;;;5090233;28;19930;-74
2022/11/30 00:36:42;;;;;;;;;;;8.40;99.90;;;;;;5101655;28;20006;-75
2022/11/30 00:39:10;;;;;;;;;;;8.40;99.90;;;;;;5109304;28;19931;-75
2022/11/30 00:41:37;;;;;;;;;;;8.40;99.90;;;;;;5096582;28;19927;-75
2022/11/30 00:44:04;;;;;;;;;;;8.40;99.90;;;;;;5077109;28;19928;-75
2022/11/30 00:46:31;;;;;;;;;;;8.30;99.90;;;;;;5073520;28;19928;-75
2022/11/30 00:48:57;;;;;;;;;;;8.40;99.90;;;;;;5089711;28;19928;-73
2022/11/30 00:51:24;;;;;;;;;;;8.40;99.90;;;;;;5095503;28;20444;-75
2022/11/30 00:53:51;;;;;;;;;;;8.40;99.90;;;;;;5080728;28;20336;-75
2022/11/30 00:56:19;;;;;;;;;;;8.40;99.90;;;;;;5088670;28;19935;-73
2022/11/30 00:58:45;;;;;;;;;;;8.40;99.90;;;;;;5095688;28;19932;-73
2022/11/30 01:01:12;;;;;;;;;;;8.40;99.90;;;;;;5071190;28;19928;-74
2022/11/30 01:03:39;;;;;;;;;;;8.40;99.90;;;;;;5079813;28;19935;-74
2022/11/30 01:06:06;;;;;;;;;;;8.50;99.90;;;;;;5091716;28;19924;-76
2022/11/30 01:08:33;;;;;;;;;;;8.50;99.90;;;;;;5089686;28;20010;-76
2022/11/30 01:11:05;;;;;;;;;;;8.40;99.90;;;;;;5089867;28;20309;-78
2022/11/30 01:13:33;;;;;;;;;;;8.40;99.90;;;;;;5096913;28;19928;-76
2022/11/30 01:15:59;;;;;;;;;;;8.40;99.90;;;;;;5094159;28;19935;-76
2022/11/30 01:18:26;;;;;;;;;;;8.40;99.90;;;;;;5089412;28;20633;-78
2022/11/30 01:20:53;;;;;;;;;;;8.40;99.90;;;;;;5091764;28;19927;-77
2022/11/30 01:23:19;;;;;;;;;;;8.40;99.90;;;;;;5071134;28;19939;-76
2022/11/30 01:25:53;;;;;;;;;;;8.40;99.90;;;;;;5110140;28;19930;-77
2022/11/30 01:28:19;;;;;;;;;;;8.40;99.90;;;;;;5102214;28;19935;-77
2022/11/30 01:30:56;;;;;;;;;;;8.40;99.90;;;;;;5089689;28;20304;-75
2022/11/30 01:33:23;;;;;;;;;;;8.40;99.90;;;;;;5085730;28;19928;-76
2022/11/30 01:35:57;;;;;;;;;;;9.80;99.90;;;;;;5102962;28;19928;-76
2022/11/30 01:38:24;;;;;;;;;;;8.40;99.90;;;;;;5089666;28;20041;-76
2022/11/30 01:40:51;;;;;;;;;;;8.40;99.90;;;;;;5089347;28;20569;-76
2022/11/30 01:43:19;;;;;;;;;;;8.40;99.90;;;;;;5077367;28;19942;-75
2022/11/30 01:45:47;;;;;;;;;;;8.40;99.90;;;;;;5078453;28;19931;-77
2022/11/30 01:48:15;;;;;;;;;;;8.40;99.90;;;;;;5102034;28;20243;-76
2022/11/30 01:50:42;;;;;;;;;;;8.40;99.90;;;;;;5080333;28;20460;-76
2022/11/30 01:53:11;;;;;;;;;;;8.40;99.90;;;;;;5108900;28;19932;-76
2022/11/30 01:55:41;;;;;;;;;;;8.40;99.90;;;;;;5086039;28;19932;-76
2022/11/30 01:58:10;;;;;;;;;;;8.40;99.90;;;;;;5095186;28;19936;-77
2022/11/30 02:00:37;;;;;;;;;;;8.40;99.90;;;;;;5095183;28;19946;-76
2022/11/30 02:03:10;;;;;;;;;;;8.50;99.90;;;;;;5068504;28;19996;-75
2022/11/30 02:05:40;;;;;;;;;;;8.50;99.90;;;;;;5074332;28;20580;-76
2022/11/30 02:08:07;;;;;;;;;;;8.50;99.90;;;;;;5073905;28;19928;-76
2022/11/30 02:10:35;;;;;;;;;;;8.60;99.90;;;;;;5095325;28;20392;-76
2022/11/30 02:13:09;;;;;;;;;;;8.60;99.90;;;;;;5088994;28;20545;-76
2022/11/30 02:15:42;;;;;;;;;;;8.60;99.90;;;;;;5096704;28;19939;-78
2022/11/30 02:18:11;;;;;;;;;;;8.60;99.90;;;;;;5095642;28;19947;-74
2022/11/30 02:20:45;;;;;;;;;;;8.60;99.90;;;;;;5080548;28;20198;-74
2022/11/30 02:23:20;;;;;;;;;;;8.70;99.90;;;;;;5075663;28;19931;-73
2022/11/30 02:25:52;;;;;;;;;;;8.70;99.90;;;;;;5081106;28;19997;-74
2022/11/30 02:28:23;;;;;;;;;;;8.70;99.90;;;;;;5069077;28;19933;-74
2022/11/30 02:30:52;;;;;;;;;;;8.70;99.90;;;;;;5081085;28;20367;-75
2022/11/30 02:33:20;;;;;;;;;;;8.70;99.90;;;;;;5084288;28;19940;-74
2022/11/30 02:35:49;;;;;;;;;;;8.70;99.90;;;;;;5122834;28;19928;-74
2022/11/30 02:38:18;;;;;;;;;;;10.30;99.90;;;;;;5092909;28;19947;-73
2022/11/30 02:40:45;;;;;;;;;;;8.70;99.90;;;;;;5088583;28;20400;-75
2022/11/30 02:43:12;;;;;;;;;;;8.70;99.90;;;;;;5100591;28;20387;-74
2022/11/30 02:45:42;;;;;;;;;;;8.70;99.90;;;;;;5086425;28;19927;-74
2022/11/30 02:48:11;;;;;;;;;;;8.60;99.90;;;;;;5087886;28;19935;-74
2022/11/30 02:50:41;;;;;;;;;;;8.60;99.90;;;;;;5100582;28;19928;-74
2022/11/30 02:53:09;;;;;;;;;;;8.60;99.90;;;;;;5070920;28;20442;-72
2022/11/30 02:55:36;;;;;;;;;;;8.50;99.90;;;;;;5088219;28;19924;-73
2022/11/30 02:58:03;;;;;;;;;;;8.50;99.90;;;;;;5094036;28;19928;-74
2022/11/30 03:00:29;;;;;;;;;;;8.50;99.90;;;;;;5099292;28;19928;-74
2022/11/30 03:02:56;;;;;;;;;;;8.40;99.90;;;;;;5086202;28;19935;-74
2022/11/30 03:05:24;;;;;;;;;;;8.40;99.90;;;;;;5065415;28;19942;-75
2022/11/30 03:07:51;;;;;;;;;;;8.40;99.90;;;;;;5087334;28;19928;-74
2022/11/30 03:10:17;;;;;;;;;;;8.40;99.90;;;;;;5087232;28;19932;-75
2022/11/30 03:12:44;;;;;;;;;;;8.30;99.90;;;;;;5079748;28;19928;-75
2022/11/30 03:15:11;;;;;;;;;;;8.20;99.90;;;;;;5088828;28;19976;-74
2022/11/30 03:17:38;;;;;;;;;;;8.20;99.90;;;;;;5106765;28;19936;-75
2022/11/30 03:20:05;;;;;;;;;;;8.10;99.90;;;;;;5106921;28;19927;-75
2022/11/30 03:22:33;;;;;;;;;;;8.10;99.90;;;;;;5106924;28;19924;-75
2022/11/30 03:25:00;;;;;;;;;;;8.00;99.90;;;;;;5080584;28;19932;-75
2022/11/30 03:27:27;;;;;;;;;;;8.00;99.90;;;;;;5065713;28;19998;-75
2022/11/30 03:29:53;;;;;;;;;;;7.90;99.90;;;;;;5071917;28;19928;-74
2022/11/30 03:32:20;;;;;;;;;;;7.90;99.90;;;;;;5100012;28;19924;-75
2022/11/30 03:34:47;;;;;;;;;;;7.90;99.90;;;;;;5088042;28;19939;-74
2022/11/30 03:37:14;;;;;;;;;;;8.00;99.90;;;;;;5090057;28;19928;-74
2022/11/30 03:39:42;;;;;;;;;;;8.00;99.90;;;;;;5096938;28;19923;-74
2022/11/30 03:42:08;;;;;;;;;;;8.10;99.90;;;;;;5106892;28;19934;-74
2022/11/30 03:44:35;;;;;;;;;;;8.10;99.90;;;;;;5098268;28;19928;-74
2022/11/30 03:47:02;;;;;;;;;;;8.00;99.90;;;;;;5091716;28;19944;-74
2022/11/30 03:49:28;;;;;;;;;;;8.10;99.90;;;;;;5107956;28;20061;-74
2022/11/30 03:51:55;;;;;;;;;;;8.00;99.90;;;;;;5101840;28;19935;-73
2022/11/30 03:54:22;;;;;;;;;;;8.00;99.90;;;;;;5094383;28;19972;-74
2022/11/30 03:56:50;;;;;;;;;;;7.90;99.90;;;;;;5104513;28;19939;-74
2022/11/30 03:59:16;;;;;;;;;;;7.90;99.90;;;;;;5089239;28;19991;-74
2022/11/30 04:01:43;;;;;;;;;;;7.80;99.90;;;;;;5090250;28;20038;-74
2022/11/30 04:04:10;;;;;;;;;;;7.80;99.90;;;;;;5100937;28;19931;-74
2022/11/30 04:06:39;;;;;;;;;;;7.80;99.90;;;;;;5110216;28;19928;-74
2022/11/30 04:09:06;;;;;;;;;;;7.70;99.90;;;;;;5101070;28;19959;-74
2022/11/30 04:11:32;;;;;;;;;;;7.70;99.90;;;;;;5090745;28;19924;-74
2022/11/30 04:14:00;;;;;;;;;;;7.70;99.90;;;;;;5095635;28;19927;-77
2022/11/30 04:16:27;;;;;;;;;;;7.60;99.90;;;;;;5098373;28;19968;-76
2022/11/30 04:18:54;;;;;;;;;;;7.60;99.90;;;;;;5091892;28;20009;-76
2022/11/30 04:21:20;;;;;;;;;;;7.60;99.90;;;;;;5091913;28;19924;-75
2022/11/30 04:23:47;;;;;;;;;;;7.60;99.90;;;;;;5109924;28;20032;-77
2022/11/30 04:26:14;;;;;;;;;;;7.60;99.90;;;;;;5091988;28;19985;-76
2022/11/30 04:28:41;;;;;;;;;;;7.60;99.90;;;;;;5064782;28;19924;-73
2022/11/30 04:31:10;;;;;;;;;;;7.60;99.90;;;;;;5096698;28;20024;-75
2022/11/30 04:33:36;;;;;;;;;;;7.60;99.90;;;;;;5080818;28;20034;-75
2022/11/30 04:36:04;;;;;;;;;;;7.60;99.90;;;;;;5098613;28;19932;-75
2022/11/30 04:38:31;;;;;;;;;;;7.60;99.90;;;;;;5071550;28;19924;-74
2022/11/30 04:40:58;;;;;;;;;;;7.60;99.90;;;;;;5090299;28;20476;-74
2022/11/30 04:43:25;;;;;;;;;;;7.60;99.90;;;;;;5095644;28;19971;-74
2022/11/30 04:45:52;;;;;;;;;;;7.60;99.90;;;;;;5104647;28;20509;-74
2022/11/30 04:48:21;;;;;;;;;;;7.60;99.90;;;;;;5103301;28;19928;-74
2022/11/30 04:50:47;;;;;;;;;;;7.60;99.90;;;;;;5094633;28;20407;-74
2022/11/30 04:53:14;;;;;;;;;;;7.70;99.90;;;;;;5086385;28;19932;-74
2022/11/30 04:55:40;;;;;;;;;;;7.70;99.90;;;;;;5084079;28;19932;-74
2022/11/30 04:58:08;;;;;;;;;;;7.70;99.90;;;;;;5095295;28;19978;-74
2022/11/30 05:00:35;;;;;;;;;;;7.60;99.90;;;;;;5077671;28;19935;-74
2022/11/30 05:03:01;;;;;;;;;;;7.60;99.90;;;;;;5089191;28;19932;-74
2022/11/30 05:05:30;;;;;;;;;;;7.60;99.90;;;;;;5089472;28;19972;-74
2022/11/30 05:07:57;;;;;;;;;;;7.60;99.90;;;;;;5110325;28;19935;-74
2022/11/30 05:10:24;;;;;;;;;;;7.60;99.90;;;;;;5081287;28;19985;-74
2022/11/30 05:12:51;;;;;;;;;;;7.30;99.90;;;;;;5096128;28;20383;-74
2022/11/30 05:15:17;;;;;;;;;;;7.60;99.90;;;;;;5095783;28;19938;-74
2022/11/30 05:17:44;;;;;;;;;;;7.60;99.90;;;;;;5088961;28;19924;-74
2022/11/30 05:20:11;;;;;;;;;;;7.70;99.90;;;;;;5070731;28;19981;-74
2022/11/30 05:22:39;;;;;;;;;;;7.70;99.90;;;;;;5093646;28;20037;-74
2022/11/30 05:25:06;;;;;;;;;;;7.70;99.90;;;;;;5089799;28;19981;-74
2022/11/30 05:27:34;;;;;;;;;;;7.60;99.90;;;;;;5090059;28;20419;-74
2022/11/30 05:30:00;;;;;;;;;;;7.60;99.90;;;;;;5089972;28;19938;-74
2022/11/30 05:32:27;;;;;;;;;;;7.60;99.90;;;;;;5077972;28;20296;-74
2022/11/30 05:34:54;;;;;;;;;;;7.60;99.90;;;;;;5083107;28;19947;-76
2022/11/30 05:37:20;;;;;;;;;;;7.50;99.90;;;;;;5103613;28;20334;-76
2022/11/30 05:39:48;;;;;;;;;;;7.50;99.90;;;;;;5092241;28;19948;-76
2022/11/30 05:42:15;;;;;;;;;;;7.50;99.90;;;;;;5074271;28;19932;-77
2022/11/30 05:44:42;;;;;;;;;;;7.50;99.90;;;;;;5099339;28;19923;-78
2022/11/30 05:47:09;;;;;;;;;;;7.60;99.90;;;;;;5097841;28;19923;-79
2022/11/30 05:49:35;;;;;;;;;;;7.60;99.90;;;;;;5121307;28;20019;-77
2022/11/30 05:52:02;;;;;;;;;;;7.60;99.90;;;;;;5097958;28;19931;-75
2022/11/30 05:54:29;;;;;;;;;;;7.60;99.90;;;;;;5111734;28;19935;-75
2022/11/30 05:56:57;;;;;;;;;;;7.60;99.90;;;;;;5114046;28;19924;-75
2022/11/30 05:59:24;;;;;;;;;;;7.60;99.90;;;;;;5102224;28;19912;-75
2022/11/30 06:01:51;;;;;;;;;;;7.60;99.90;;;;;;5099831;28;19979;-75
2022/11/30 06:04:18;;;;;;;;;;;7.60;99.90;;;;;;5114099;28;19930;-79
2022/11/30 06:06:45;;;;;;;;;;;7.60;99.90;;;;;;5120369;28;19927;-79
2022/11/30 06:09:12;;;;;;;;;;;7.70;99.90;;;;;;5130737;28;19998;-79
2022/11/30 06:11:40;;;;;;;;;;;7.60;99.90;;;;;;5129003;28;19983;-79
2022/11/30 06:14:09;;;;;;;;;;;7.60;99.90;;;;;;5114934;28;19939;-75
2022/11/30 06:16:38;;;;;;;;;;;7.60;99.90;;;;;;5104702;28;19926;-72
2022/11/30 06:19:08;;;;;;;;;;;7.60;99.90;;;;;;5119972;28;20065;-75
2022/11/30 06:21:38;;;;;;;;;;;7.60;99.90;;;;;;5126585;28;19934;-73
2022/11/30 06:24:06;;;;;;;;;;;7.50;99.90;;;;;;5123957;22;19957;-78
2022/11/30 06:26:33;;;;;;;;;;;7.50;99.90;;;;;;5092839;28;19944;-80
2022/11/30 06:28:59;;;;;;;;;;;7.50;99.90;;;;;;5112483;28;20349;-81
2022/11/30 06:31:32;;;;;;;;;;;7.60;99.90;;;;;;5087827;28;19932;-81
2022/11/30 06:33:59;;;;;;;;;;;7.60;99.90;;;;;;5089742;28;19927;-75
2022/11/30 06:36:26;;;;;;;;;;;7.60;99.90;;;;;;5093075;28;20222;-75
2022/11/30 06:38:53;;;;;;;;;;;7.60;99.90;;;;;;5091893;28;19935;-76
2022/11/30 06:41:20;;;;;;;;;;;7.70;99.90;;;;;;5110604;28;19927;-76
2022/11/30 06:43:47;;;;;;;;;;;7.70;99.90;;;;;;5091488;28;19927;-77
2022/11/30 06:46:14;;;;;;;;;;;7.70;99.90;;;;;;5110071;28;19924;-76
2022/11/30 06:48:42;;;;;;;;;;;7.70;99.90;;;;;;5091522;28;19928;-77
2022/11/30 06:51:11;;;;;;;;;;;7.70;99.90;;;;;;5110419;28;20124;-77
2022/11/30 06:53:43;;;;;;;;;;;7.70;99.90;;;;;;5117089;28;20003;-84
2022/11/30 06:56:10;;;;;;;;;;;7.80;99.90;;;;;;5087212;28;19930;-83
2022/11/30 06:58:38;;;;;;;;;;;7.80;99.90;;;;;;5101993;28;19928;-83
2022/11/30 07:01:06;;;;;;;;;;;7.80;99.90;;;;;;5099433;28;19976;-81
2022/11/30 07:03:56;;;;;;;;;;;7.90;99.90;;;;;;5107664;28;19928;-79
2022/11/30 07:06:24;;;;;;;;;;;7.90;99.90;;;;;;5091073;28;19958;-78
2022/11/30 07:08:51;;;;;;;;;;;7.90;99.90;;;;;;5093273;28;19972;-82
2022/11/30 07:11:18;;;;;;;;;;;7.90;99.90;;;;;;5092726;28;19938;-80
2022/11/30 07:13:45;;;;;;;;;;;8.00;99.90;;;;;;5077737;28;20385;-80
2022/11/30 07:16:12;;;;;;;;;;;8.00;99.90;;;;;;5086133;28;19928;-82
2022/11/30 07:18:39;;;;;;;;;;;8.00;99.90;;;;;;5087745;28;20343;-85
2022/11/30 07:21:07;;;;;;;;;;;8.00;99.90;;;;;;5090754;28;19928;-82
2022/11/30 07:26:21;;;;;;;;;;;8.00;99.90;;;;;;5093973;28;19923;-82
2022/11/30 07:28:53;;;;;;;;;;;8.00;99.90;;;;;;5091684;28;20048;-82
2022/11/30 07:31:21;;;;;;;;;;;8.00;99.90;;;;;;5092246;28;19940;-85
2022/11/30 07:33:48;;;;;;;;;;;8.10;99.90;;;;;;5089000;28;19928;-80
2022/11/30 07:36:19;;;;;;;;;;;8.10;99.90;;;;;;5088505;28;19938;-80
2022/11/30 07:38:48;;;;;;;;;;;8.10;99.90;;;;;;5077500;28;19939;-80
2022/11/30 07:41:15;;;;;;;;;;;8.10;99.90;;;;;;5090826;28;19960;-80
2022/11/30 07:43:42;;;;;;;;;;;8.00;99.90;;;;;;5084642;28;19969;-80
2022/11/30 07:46:09;;;;;;;;;;;8.00;99.90;;;;;;5089231;28;20903;-80
2022/11/30 07:48:36;;;;;;;;;;;8.10;99.90;;;;;;5088981;28;19928;-80
2022/11/30 07:51:03;;;;;;;;;;;8.10;99.90;;;;;;5090159;28;19931;-79
2022/11/30 07:53:31;;;;;;;;;;;8.10;99.90;;;;;;5104054;28;19924;-80
2022/11/30 07:56:02;;;;;;;;;;;8.20;99.90;;;;;;5091639;28;19963;-80
2022/11/30 07:58:30;;;;;;;;;;;8.10;99.90;;;;;;5087193;28;19932;-80
2022/11/30 08:01:00;;;;;;;;;;;8.20;99.90;;;;;;5078996;28;19977;-80
2022/11/30 08:03:27;;;;;;;;;;;8.20;99.90;;;;;;5107570;28;19931;-80
2022/11/30 08:05:54;;;;;;;;;;;8.20;99.90;;;;;;5093140;28;20004;-80
2022/11/30 08:08:21;;;;;;;;;;;8.20;99.90;;;;;;5093664;28;19943;-80
2022/11/30 08:10:48;;;;;;;;;;;8.20;99.90;;;;;;5091743;28;20462;-80
2022/11/30 08:13:16;;;;;;;;;;;8.30;99.90;;;;;;5092657;28;19931;-81
2022/11/30 08:15:43;;;;;;;;;;;8.30;99.90;;;;;;5094429;28;20048;-81
2022/11/30 08:18:10;;;;;;;;;;;8.30;99.90;;;;;;5094026;28;19936;-80
2022/11/30 08:20:36;;;;;;;;;;;8.20;99.90;;;;;;5095170;28;19934;-81
2022/11/30 08:23:03;;;;;;;;;;;8.20;99.90;;;;;;5097192;28;19927;-81
2022/11/30 08:25:30;;;;;;;;;;;8.20;99.90;;;;;;5097487;28;19928;-80
2022/11/30 08:27:57;;;;;;;;;;;8.20;99.90;;;;;;5097844;28;20065;-80
2022/11/30 08:30:25;;;;;;;;;;;8.20;99.90;;;;;;5107025;22;19932;-77
2022/11/30 08:32:52;;;;;;;;;;;8.20;99.90;;;;;;5091530;28;20372;-77
2022/11/30 08:35:18;;;;;;;;;;;8.20;99.90;;;;;;5074655;28;19928;-78
2022/11/30 08:37:45;;;;;;;;;;;8.20;99.90;;;;;;5075183;28;19939;-79
2022/11/30 08:40:12;;;;;;;;;;;8.30;99.90;;;;;;5091483;28;19977;-79
2022/11/30 08:42:42;;;;;;;;;;;9.00;99.90;;;;;;5078296;28;19939;-82
2022/11/30 08:45:09;;;;;;;;;;;8.30;99.90;;;;;;5098222;28;19967;-82
2022/11/30 08:47:37;;;;;;;;;;;8.30;99.90;;;;;;5074966;28;20009;-81
2022/11/30 08:50:04;;;;;;;;;;;8.30;99.90;;;;;;5087159;28;20431;-82
2022/11/30 08:52:30;;;;;;;;;;;8.30;99.90;;;;;;5088009;28;19932;-83
2022/11/30 08:54:57;;;;;;;;;;;8.30;99.90;;;;;;5084548;28;19958;-80
2022/11/30 08:57:25;;;;;;;;;;;8.20;99.90;;;;;;5065967;28;19947;-81
2022/11/30 08:59:52;;;;;;;;;;;8.20;99.90;;;;;;5074444;28;19967;-80
2022/11/30 09:02:19;;;;;;;;;;;8.20;99.90;;;;;;5092037;28;19936;-80
2022/11/30 09:04:49;;;;;;;;;;;8.20;99.90;;;;;;5089012;28;19978;-81
2022/11/30 09:07:16;;;;;;;;;;;8.20;99.90;;;;;;5086330;28;19932;-82
2022/11/30 09:09:43;;;;;;;;;;;8.20;99.90;;;;;;5085691;28;19932;-82
2022/11/30 09:12:10;;;;;;;;;;;8.20;99.90;;;;;;5083915;28;19961;-80
2022/11/30 09:14:36;;;;;;;;;;;8.20;99.90;;;;;;5075722;28;20396;-81
2022/11/30 09:17:03;;;;;;;;;;;8.60;99.90;;;;;;5072557;28;19935;-81
2022/11/30 09:19:30;;;;;;;;;;;8.20;99.90;;;;;;5088034;28;19923;-81
2022/11/30 09:21:59;;;;;;;;;;;8.10;99.90;;;;;;5095320;28;20350;-81
2022/11/30 09:24:26;;;;;;;;;;;8.10;99.90;;;;;;5093932;28;20374;-82
2022/11/30 09:26:54;;;;;;;;;;;8.10;99.90;;;;;;5076178;28;20026;-81
2022/11/30 09:29:21;;;;;;;;;;;8.10;99.90;;;;;;5092139;28;19932;-80
2022/11/30 09:31:48;;;;;;;;;;;8.10;99.90;;;;;;5075582;28;20401;-81
2022/11/30 09:34:15;;;;;;;;;;;8.10;99.90;;;;;;5092523;28;20010;-81
2022/11/30 09:36:41;;;;;;;;;;;8.10;99.90;;;;;;5092577;28;19928;-82
2022/11/30 09:39:11;;;;;;;;;;;8.10;99.90;;;;;;5089367;28;19936;-81
2022/11/30 09:41:57;;;;;;;;;;;8.10;99.90;;;;;;5068684;28;19928;-81
2022/11/30 09:44:26;;;;;;;;;;;8.10;99.90;;;;;;5090043;28;20001;-80
2022/11/30 09:46:57;;;;;;;;;;;8.10;99.90;;;;;;5095167;28;19935;-81
2022/11/30 09:49:26;;;;;;;;;;;8.20;99.90;;;;;;5094989;28;19947;-82
2022/11/30 09:51:54;;;;;;;;;;;8.20;99.90;;;;;;5093951;28;19924;-82
2022/11/30 09:54:34;;;;;;;;;;;8.10;99.90;;;;;;5073800;28;20029;-82
2022/11/30 09:57:02;;;;;;;;;;;8.10;99.90;;;;;;5092594;28;19935;-82
2022/11/30 09:59:31;;;;;;;;;;;8.10;99.90;;;;;;5073778;28;20030;-81
2022/11/30 10:01:59;;;;;;;;;;;8.10;99.90;;;;;;5072454;28;19928;-81
2022/11/30 10:04:27;;;;;;;;;;;8.10;99.90;;;;;;5070969;28;20031;-82
2022/11/30 10:07:00;;;;;;;;;;;8.10;99.90;;;;;;5089430;28;20005;-80
2022/11/30 10:09:37;;;;;;;;;;;8.00;99.90;;;;;;5083867;28;19932;-81
2022/11/30 10:12:05;;;;;;;;;;;8.10;99.90;;;;;;5090670;28;19928;-81
2022/11/30 10:14:40;;;;;;;;;;;8.10;99.90;;;;;;5076268;28;19942;-81
2022/11/30 10:17:11;;;;;;;;;;;8.20;99.90;;;;;;5092486;28;19928;-81
2022/11/30 10:19:53;;;;;;;;;;;8.20;99.90;;;;;;5090610;28;19928;-81
2022/11/30 10:22:22;;;;;;;;;;;8.20;99.90;;;;;;5086041;28;20380;-80
2022/11/30 10:24:56;;;;;;;;;;;8.20;99.90;;;;;;5068226;28;19960;-80
2022/11/30 10:27:31;;;;;;;;;;;8.20;99.90;;;;;;5069268;28;19977;-81
2022/11/30 10:30:00;;;;;;;;;;;8.20;99.90;;;;;;5090064;28;19935;-82
2022/11/30 10:32:29;;;;;;;;;;;8.20;99.90;;;;;;5086797;28;19929;-81
2022/11/30 10:35:01;;;;;;;;;;;8.20;99.90;;;;;;5090948;28;19931;-80
2022/11/30 10:37:32;;;;;;;;;;;8.20;99.90;;;;;;5090275;28;19947;-80
2022/11/30 10:40:02;;;;;;;;;;;8.20;99.90;;;;;;5087775;28;19924;-80
2022/11/30 10:42:32;;;;;;;;;;;8.30;99.90;;;;;;5068189;28;20007;-81
2022/11/30 10:45:00;;;;;;;;;;;8.30;99.90;;;;;;5092349;28;20311;-82
2022/11/30 10:47:30;;;;;;;;;;;8.30;99.90;;;;;;5087094;28;19928;-81
2022/11/30 10:49:56;;;;;;;;;;;8.30;99.90;;;;;;5075702;28;19928;-80
2022/11/30 10:52:25;;;;;;;;;;;8.30;99.90;;;;;;5072486;28;19928;-80
2022/11/30 10:54:54;;;;;;;;;;;8.30;99.90;;;;;;5074583;28;19928;-80
2022/11/30 10:57:22;;;;;;;;;;;8.30;99.90;;;;;;5091446;28;20410;-80
2022/11/30 10:59:51;;;;;;;;;;;8.30;99.90;;;;;;5095091;28;19953;-81
2022/11/30 11:02:32;;;;;;;;;;;8.40;99.90;;;;;;5081209;28;19936;-81
2022/11/30 11:05:08;;;;;;;;;;;8.10;99.90;;;;;;5075463;28;19932;-80
2022/11/30 11:07:44;;;;;;;;;;;8.40;99.90;;;;;;5085786;28;19940;-79
2022/11/30 11:10:13;;;;;;;;;;;8.40;99.90;;;;;;5083813;28;19932;-81
2022/11/30 11:12:46;;;;;;;;;;;8.50;99.90;;;;;;5081798;28;20020;-81
2022/11/30 11:15:17;;;;;;;;;;;8.50;99.90;;;;;;5067583;28;19951;-80
2022/11/30 11:17:44;;;;;;;;;;;8.60;99.90;;;;;;5091908;28;19928;-81
2022/11/30 11:20:27;;;;;;;;;;;8.60;99.90;;;;;;5078485;28;19976;-81
2022/11/30 11:22:53;;;;;;;;;;;8.60;99.90;;;;;;5097828;28;19943;-82
2022/11/30 11:25:21;;;;;;;;;;;8.70;99.90;;;;;;5087635;28;19958;-83
2022/11/30 11:27:52;;;;;;;;;;;8.70;99.90;;;;;;5086922;28;19966;-81
2022/11/30 11:30:28;;;;;;;;;;;8.80;99.90;;;;;;5073391;28;19928;-82
2022/11/30 11:32:58;;;;;;;;;;;8.80;99.90;;;;;;5090844;28;19932;-82
2022/11/30 11:35:32;;;;;;;;;;;8.80;99.90;;;;;;5087587;28;19931;-80
2022/11/30 11:37:58;;;;;;;;;;;8.80;99.90;;;;;;5081323;28;20140;-80
2022/11/30 11:40:25;;;;;;;;;;;8.70;99.90;;;;;;5083114;28;19939;-80
2022/11/30 11:42:54;;;;;;;;;;;8.70;99.90;;;;;;5084757;28;19935;-80
2022/11/30 11:45:22;;;;;;;;;;;8.80;99.90;;;;;;5066167;28;19935;-80
2022/11/30 11:47:57;;;;;;;;;;;8.80;99.90;;;;;;5085818;28;19928;-80
2022/11/30 11:50:25;;;;;;;;;;;8.90;99.90;;;;;;5087639;28;19939;-81
2022/11/30 11:53:10;;;;;;;;;;;8.90;99.90;;;;;;5062962;28;19928;-80
2022/11/30 11:55:37;;;;;;;;;;;8.90;99.90;;;;;;5065802;28;19935;-81
2022/11/30 11:58:06;;;;;;;;;;;9.00;99.90;;;;;;5086185;28;19932;-82
2022/11/30 12:00:32;;;;;;;;;;;9.00;99.90;;;;;;5086008;28;19924;-81
2022/11/30 12:03:01;;;;;;;;;;;9.00;99.90;;;;;;5070862;28;19924;-81
2022/11/30 12:05:30;;;;;;;;;;;9.00;99.90;;;;;;5097058;28;19939;-82
2022/11/30 12:08:02;;;;;;;;;;;9.00;99.90;;;;;;5076086;28;19945;-80
2022/11/30 12:10:31;;;;;;;;;;;9.00;99.90;;;;;;5093809;28;19946;-81
2022/11/30 12:12:58;;;;;;;;;;;9.00;99.90;;;;;;5097386;28;20343;-81
2022/11/30 12:15:31;;;;;;;;;;;9.00;99.90;;;;;;5087098;28;19932;-82
2022/11/30 12:18:02;;;;;;;;;;;8.90;99.90;;;;;;5085992;28;20522;-81
2022/11/30 12:20:33;;;;;;;;;;;8.80;99.90;;;;;;5090217;28;20233;-81
2022/11/30 12:23:07;;;;;;;;;;;8.80;99.90;;;;;;5083766;28;19998;-80
2022/11/30 12:25:36;;;;;;;;;;;8.80;99.90;;;;;;5085224;28;19932;-81
2022/11/30 12:28:10;;;;;;;;;;;8.80;99.90;;;;;;5090396;28;19956;-82
2022/11/30 12:30:41;;;;;;;;;;;8.90;99.90;;;;;;5083995;28;19978;-81
2022/11/30 12:33:12;;;;;;;;;;;8.90;99.90;;;;;;5069502;28;19943;-80
2022/11/30 12:35:48;;;;;;;;;;;8.90;99.90;;;;;;5089663;28;19935;-82
2022/11/30 12:38:20;;;;;;;;;;;8.90;99.90;;;;;;5065856;28;20606;-80
2022/11/30 12:40:51;;;;;;;;;;;8.80;99.90;;;;;;5082111;28;20388;-80
2022/11/30 12:43:23;;;;;;;;;;;8.80;99.90;;;;;;5067118;28;19932;-80
2022/11/30 12:45:54;;;;;;;;;;;8.80;99.90;;;;;;5087035;28;19928;-82
2022/11/30 12:48:24;;;;;;;;;;;8.90;99.90;;;;;;5104491;28;20000;-80
2022/11/30 12:50:56;;;;;;;;;;;8.90;99.90;;;;;;5103418;28;19936;-80
2022/11/30 12:53:27;;;;;;;;;;;8.90;99.90;;;;;;5086142;28;19932;-81
2022/11/30 12:56:00;;;;;;;;;;;8.90;99.90;;;;;;5104260;28;20921;-81
2022/11/30 12:58:31;;;;;;;;;;;8.90;99.90;;;;;;5088542;28;19924;-81
2022/11/30 13:01:04;;;;;;;;;;;8.90;99.90;;;;;;5116633;28;20299;-80
2022/11/30 13:03:43;;;;;;;;;;;8.90;99.90;;;;;;5114572;28;20316;-80
2022/11/30 13:06:12;;;;;;;;;;;8.80;99.90;;;;;;5110295;28;20235;-80
2022/11/30 13:08:44;;;;;;;;;;;8.90;99.90;;;;;;5102827;28;19931;-81
2022/11/30 13:11:12;;;;;;;;;;;8.90;99.90;;;;;;5104782;28;19946;-80
2022/11/30 13:13:43;;;;;;;;;;;8.90;99.90;;;;;;5119561;28;19924;-81
2022/11/30 13:16:13;;;;;;;;;;;9.00;99.90;;;;;;5132093;28;19940;-82
2022/11/30 13:18:41;;;;;;;;;;;8.90;99.90;;;;;;5131080;28;19912;-83
2022/11/30 13:21:16;;;;;;;;;;;8.90;99.90;;;;;;5109142;28;19928;-81
2022/11/30 13:23:46;;;;;;;;;;;8.90;99.90;;;;;;5103997;28;19985;-81
2022/11/30 13:26:17;;;;;;;;;;;8.90;99.90;;;;;;5120794;28;20273;-81
2022/11/30 13:28:56;;;;;;;;;;;8.80;99.90;;;;;;5118107;28;20022;-81
2022/11/30 13:31:27;;;;;;;;;;;8.70;99.90;;;;;;5117463;28;19943;-82
2022/11/30 13:33:58;;;;;;;;;;;8.60;99.90;;;;;;5113668;28;20351;-83
2022/11/30 13:36:36;;;;;;;;;;;8.60;99.90;;;;;;5117327;28;19992;-82
2022/11/30 13:39:16;;;;;;;;;;;8.60;99.90;;;;;;5098913;28;19935;-82
2022/11/30 13:41:44;;;;;;;;;;;8.60;99.90;;;;;;5109386;28;19932;-81
2022/11/30 13:44:21;;;;;;;;;;;8.60;99.90;;;;;;5106930;28;19938;-82
2022/11/30 13:46:50;;;;;;;;;;;7.90;99.90;;;;;;5108600;28;19924;-82
2022/11/30 13:49:20;;;;;;;;;;;8.50;99.90;;;;;;5099571;28;20295;-82
2022/11/30 13:51:46;;;;;;;;;;;8.50;99.90;;;;;;5110599;28;19928;-82
2022/11/30 13:54:28;;;;;;;;;;;8.50;99.90;;;;;;5116207;28;20253;-81
2022/11/30 13:56:54;;;;;;;;;;;8.40;99.90;;;;;;5099773;28;19927;-82
2022/11/30 13:59:39;;;;;;;;;;;8.40;99.90;;;;;;5114763;28;19924;-81
2022/11/30 14:02:24;;;;;;;;;;;8.40;99.90;;;;;;5119913;27;19970;-81
2022/11/30 14:04:52;;;;;;;;;;;8.40;99.90;;;;;;5118152;28;19924;-81
2022/11/30 14:07:35;;;;;;;;;;;8.40;99.90;;;;;;5118318;28;19959;-81
2022/11/30 14:10:02;;;;;;;;;;;8.50;99.90;;;;;;5091017;28;20218;-81
2022/11/30 14:12:56;;;;;;;;;;;8.50;99.90;;;;;;5119383;28;20017;-81
2022/11/30 14:15:50;;;;;;;;;;;8.40;99.90;;;;;;5114665;28;20010;-82
2022/11/30 14:18:20;;;;;;;;;;;8.40;99.90;;;;;;5117318;28;19928;-81
2022/11/30 14:20:50;;;;;;;;;;;8.50;99.90;;;;;;5100331;28;20406;-81
2022/11/30 14:23:18;;;;;;;;;;;8.40;99.90;;;;;;5118333;28;19928;-82
2022/11/30 14:25:47;;;;;;;;;;;8.40;99.90;;;;;;5119408;28;20026;-82
2022/11/30 14:28:15;;;;;;;;;;;8.40;99.90;;;;;;5119865;28;19935;-82
2022/11/30 14:30:43;;;;;;;;;;;8.40;99.90;;;;;;5117611;28;20014;-82
2022/11/30 14:33:12;;;;;;;;;;;8.40;99.90;;;;;;5115799;28;20349;-81
2022/11/30 14:35:40;;;;;;;;;;;8.30;99.90;;;;;;5098898;28;19976;-82
2022/11/30 14:38:16;;;;;;;;;;;8.40;99.90;;;;;;5101067;28;19932;-81
2022/11/30 14:40:49;;;;;;;;;;;8.30;99.90;;;;;;5108668;28;20061;-82
2022/11/30 14:43:17;;;;;;;;;;;8.30;99.90;;;;;;5121139;22;19923;-81
2022/11/30 14:45:55;;;;;;;;;;;8.20;99.90;;;;;;5099206;28;20088;-82